Strona główna
METAR-TAF:

METAR-TAF

Lotnisko :

Port lotniczy Labuan

Labuan, Malezja

Szerokość geograficzna: 05-18N, Długość geograficzna: 115-15E, wysokość: 30 m

Aktualna obserwacja pogody

Raport powstał 41 minut temu, godzina 22:00 UTC
Cisza
Temperatura 25°C
Wilgotność 100%
Ciśnienie 1010 hPa
Widzialność 10 km lub więcej
Mało chmury na wysokości 1600 ft

METAR: WBKL 102200Z 00000KT 9999 FEW016 25/25 Q1010

czas: 06:41 (22:41 UTC)

Prognoza

Raport powstał 5 godziny i 41 minut temu, godzina 17:00 UTC
Prognoza ważna od 10 godzina 18 UTC do 11 godzina 18 UTC
Wiatr 3 kt z kierunków zmiennych
Widzialność 10 km lub więcej
Mało chmury na wysokości 1500 ft
Przejściowo
od 11 godzina 10 UTC do 11 godzina 14 UTC
Widzialność: 5000 m
Mało chmury na wysokości 1000 ft
Mało chmury na wysokości 1500 ft, Cumulonimbus.
Rozproszone chmury na wysokości 3000 ft
burza, deszcz

TAF: WBKL 101700Z 1018/1118 VRB03KT 9999 FEW015 TEMPO 1110/1114 5000 TSRA FEW010 FEW015CB SCT030

Obserwacja i prognoza pogody dla ponad 4000 lotnisk (raport METAR i TAF).

Dostępne stacje oznaczono żółtymi i czerwonymi punktami na mapie.

Najedź kursorem aby zobaczyć nazwę stacji.

Kliknij aby zobaczyć obserwacje i prognozy pogody.

Aby zmienić mapę: kliknij na zielony przycisk z czarnym krzyżykiem, aby powiększyć; na zielony przycisk z myślnikiem, aby pomniejszyć; na zielone strzałki, aby przejść do map sąsiednich.


METAR-TAF: